Time;durP1;ratioP1;P1;durP2;ratioP2;P2;SDS_P1;SDS_P2;PMS_P1;PMS_P2;Temp;Humidity;BMP_temperature;BMP_pressure;BME280_temperature;BME280_humidity;BME280_pressure;Samples;Min_cycle;Max_cycle;Signal;HPM_P1;HPM_P2
2022/09/14 00:01:15;;;;;;;;;;;;;;;59.57;6.64;100468.28;5093170;28;19924;-64
2022/09/14 00:03:42;;;;;;;;;;;;;;;60.72;5.96;100466.44;5107848;28;19920;-63
2022/09/14 00:06:09;;;;;;;;;;;;;;;62.54;4.54;100468.25;5100173;28;19920;-63
2022/09/14 00:08:36;;;;;;;;;;;;;;;66.06;2.92;100467.03;5112867;27;19927;-63
2022/09/14 00:11:10;;;;;;;;;;;;;;;67.84;2.51;100481.50;5108281;28;20354;-66
2022/09/14 00:13:38;;;;;;;;;;;;;;;68.67;1.17;100486.91;5107234;28;19920;-67
2022/09/14 00:16:06;;;;;;;;;;;;;;;67.08;2.75;100475.38;5108219;28;19919;-65
2022/09/14 00:18:34;;;;;;;;;;;;;;;66.55;2.06;100472.28;5106603;28;20014;-65
2022/09/14 00:21:01;;;;;;;;;;;;;;;66.11;2.97;100473.91;5102412;28;19961;-65
2022/09/14 00:23:28;;;;;;;;;;;;;;;62.04;3.72;100472.44;5104839;28;20399;-66
2022/09/14 00:25:54;;;;;;;;;;;;;;;63.26;3.83;100465.31;5104100;28;19916;-66
2022/09/14 00:28:20;;;;;;;;;;;;;;;61.55;4.31;100468.44;5100793;28;19963;-66
2022/09/14 00:30:47;;;;;;;;;;;;;;;64.83;3.22;100465.31;5096208;28;20010;-66
2022/09/14 00:33:13;;;;;;;;;;;;;;;66.19;1.83;100468.38;5085075;28;19920;-68
2022/09/14 00:35:40;;;;;;;;;;;;;;;68.94;1.19;100480.44;5101944;28;19923;-65
2022/09/14 00:38:08;;;;;;;;;;;;;;;69.46;0.76;100489.66;5102384;28;19927;-64
2022/09/14 00:40:35;;;;;;;;;;;;;;;69.99;0.48;100482.44;5100428;28;20300;-64
2022/09/14 00:43:01;;;;;;;;;;;;;;;68.12;1.19;100475.91;5100703;28;19916;-65
2022/09/14 00:45:28;;;;;;;;;;;;;;;65.56;2.10;100472.00;5098713;28;19943;-64
2022/09/14 00:47:55;;;;;;;;;;;;;;;64.20;2.81;100468.53;5099833;28;19942;-64
2022/09/14 00:50:22;;;;;;;;;;;;;;;61.22;4.68;100459.56;5092966;28;20360;-64
2022/09/14 00:52:49;;;;;;;;;;;;;;;60.74;4.65;100466.56;5094381;28;20294;-64
2022/09/14 00:55:22;;;;;;;;;;;;;;;60.16;5.33;100466.81;5097478;28;20472;-65
2022/09/14 00:57:51;;;;;;;;;;;;;;;60.83;5.45;100464.94;5099201;28;20395;-66
2022/09/14 01:00:19;;;;;;;;;;;;;;;59.03;5.82;100467.78;5099089;28;19923;-66
2022/09/14 01:02:46;;;;;;;;;;;;;;;57.05;7.45;100456.66;5100101;27;19969;-65
2022/09/14 01:05:13;;;;;;;;;;;;;;;56.04;8.08;100466.78;5096064;28;20366;-67
2022/09/14 01:07:50;;;;;;;;;;;;;;;54.45;8.59;100463.56;5101622;27;19919;-66
2022/09/14 01:10:49;;;;;;;;;;;;;;;54.48;8.07;100468.22;5096979;28;19931;-64
2022/09/14 01:13:27;;;;;;;;;;;;;;;54.06;8.85;100461.94;5098218;28;19924;-65
2022/09/14 01:15:57;;;;;;;;;;;;;;;54.86;8.67;100464.56;5099333;28;19928;-66
2022/09/14 01:18:26;;;;;;;;;;;;;;;55.08;8.64;100468.81;5097465;28;19920;-66
2022/09/14 01:21:13;;;;;;;;;;;;;;;54.96;8.89;100464.78;5100195;28;20397;-66
2022/09/14 01:23:54;;;;;;;;;;;;;;;54.49;8.63;100478.50;5102215;27;19969;-65
2022/09/14 01:26:23;;;;;;;;;;;;;;;55.00;9.00;100468.84;5096275;28;19920;-65
2022/09/14 01:29:09;;;;;;;;;;;;;;;53.86;9.40;100469.38;5096123;28;20332;-66
2022/09/14 01:31:42;;;;;;;;;;;;;;;54.34;9.92;100472.66;5101908;28;19934;-66
2022/09/14 01:34:13;;;;;;;;;;;;;;;53.86;9.71;100475.19;5100419;28;19924;-65
2022/09/14 01:36:41;;;;;;;;;;;;;;;53.89;9.46;100473.28;5095568;28;20404;-65
2022/09/14 01:39:10;;;;;;;;;;;;;;;53.46;9.75;100471.13;5082376;28;19920;-65
2022/09/14 01:41:38;;;;;;;;;;;;;;;52.79;10.65;100480.31;5094431;28;19981;-67
2022/09/14 01:44:05;;;;;;;;;;;;;;;53.33;10.37;100474.88;5096774;28;20263;-64
2022/09/14 01:46:40;;;;;;;;;;;;;;;53.04;11.88;100479.94;5078838;28;19924;-65
2022/09/14 01:49:26;;;;;;;;;;;;;;;52.35;11.39;100485.06;5095304;28;19928;-64
2022/09/14 01:51:57;;;;;;;;;;;;;;;52.07;12.32;100479.13;5094587;28;19920;-65
2022/09/14 01:54:44;;;;;;;;;;;;;;;53.01;11.39;100484.75;5096122;28;19920;-65
2022/09/14 01:57:17;;;;;;;;;;;;;;;51.87;12.03;100483.53;5096804;27;19923;-65
2022/09/14 01:59:45;;;;;;;;;;;;;;;52.47;11.89;100483.50;5109850;27;20477;-66
2022/09/14 02:02:11;;;;;;;;;;;;;;;51.46;13.30;100489.91;5085078;28;19920;-67
2022/09/14 02:04:46;;;;;;;;;;;;;;;50.60;14.18;100494.81;5100560;28;20846;-65
2022/09/14 02:07:13;;;;;;;;;;;;;;;50.26;15.24;100497.44;5085939;28;19927;-66
2022/09/14 02:09:40;;;;;;;;;;;;;;;50.73;15.05;100494.13;5099247;28;20026;-67
2022/09/14 02:12:07;;;;;;;;;;;;;;;50.96;14.54;100492.38;5102364;28;19920;-66
2022/09/14 02:14:33;;;;;;;;;;;;;;;49.94;15.97;100502.38;5104874;28;19968;-66
2022/09/14 02:17:00;;;;;;;;;;;;;;;50.40;15.84;100507.00;5104351;28;19927;-66
2022/09/14 02:19:28;;;;;;;;;;;;;;;50.65;15.13;100508.44;5101116;28;19944;-67
2022/09/14 02:21:54;;;;;;;;;;;;;;;50.43;15.50;100511.66;5101885;28;20026;-67
2022/09/14 02:24:20;;;;;;;;;;;;;;;51.60;14.77;100521.22;5097725;28;19916;-65
2022/09/14 02:26:48;;;;;;;;;;;;;;;51.17;14.59;100520.72;5098697;28;19930;-67
2022/09/14 02:29:14;;;;;;;;;;;;;;;51.36;14.69;100506.97;5098711;28;19920;-65
2022/09/14 02:31:41;;;;;;;;;;;;;;;51.23;14.78;100530.88;5101379;27;19923;-65
2022/09/14 02:34:23;;;;;;;;;;;;;;;51.23;14.87;100535.91;5101814;28;19912;-66
2022/09/14 02:36:55;;;;;;;;;;;;;;;50.74;15.43;100531.19;5103504;28;20298;-65
2022/09/14 02:39:26;;;;;;;;;;;;;;;51.32;14.30;100538.34;5098394;28;20381;-65
2022/09/14 02:41:59;;;;;;;;;;;;;;;49.65;15.81;100538.72;5098253;28;19927;-65
2022/09/14 02:44:25;;;;;;;;;;;;;;;51.06;14.27;100545.66;5098474;28;19916;-64
2022/09/14 02:47:00;;;;;;;;;;;;;;;51.33;14.12;100534.09;5101191;28;20294;-65
2022/09/14 02:49:37;;;;;;;;;;;;;;;51.41;13.83;100546.63;5097800;28;20006;-67
2022/09/14 02:52:03;;;;;;;;;;;;;;;50.87;14.76;100550.72;5099333;28;20393;-65
2022/09/14 02:54:34;;;;;;;;;;;;;;;51.21;14.48;100544.38;5104808;28;19927;-66
2022/09/14 02:57:01;;;;;;;;;;;;;;;51.62;14.47;100549.66;5102386;28;19919;-64
2022/09/14 02:59:28;;;;;;;;;;;;;;;51.88;14.46;100549.63;5085366;28;19916;-64
2022/09/14 03:01:57;;;;;;;;;;;;;;;52.15;13.74;100543.84;5104649;28;19920;-65
2022/09/14 03:04:23;;;;;;;;;;;;;;;52.56;14.28;100548.94;5106589;28;19920;-66
2022/09/14 03:06:49;;;;;;;;;;;;;;;52.78;13.85;100548.41;5104015;28;20222;-64
2022/09/14 03:09:15;;;;;;;;;;;;;;;52.78;13.15;100560.03;5105393;28;19924;-64
2022/09/14 03:11:42;;;;;;;;;;;;;;;52.39;14.05;100557.28;5102640;28;19964;-63
2022/09/14 03:14:09;;;;;;;;;;;;;;;52.47;12.51;100563.97;5088194;28;20063;-63
2022/09/14 03:16:36;;;;;;;;;;;;;;;52.62;12.61;100569.94;5104245;28;20057;-63
2022/09/14 03:19:03;;;;;;;;;;;;;;;52.41;13.02;100569.09;5103845;28;19927;-64
2022/09/14 03:21:29;;;;;;;;;;;;;;;51.94;13.78;100576.41;5105104;28;20461;-65
2022/09/14 03:23:56;;;;;;;;;;;;;;;51.68;11.47;100582.19;5104697;28;19928;-64
2022/09/14 03:26:23;;;;;;;;;;;;;;;50.63;12.03;100579.75;5110336;28;19919;-65
2022/09/14 03:28:54;;;;;;;;;;;;;;;50.20;12.80;100586.41;5110508;28;19959;-64
2022/09/14 03:31:20;;;;;;;;;;;;;;;50.94;11.60;100590.59;5108025;28;19931;-64
2022/09/14 03:33:47;;;;;;;;;;;;;;;51.16;11.35;100588.66;5106595;28;19916;-66
2022/09/14 03:36:17;;;;;;;;;;;;;;;50.81;11.51;100593.44;5109968;28;19920;-65
2022/09/14 03:38:48;;;;;;;;;;;;;;;51.35;10.82;100595.97;5106562;28;19919;-66
2022/09/14 03:41:14;;;;;;;;;;;;;;;51.14;11.16;100591.34;5109312;28;19931;-64
2022/09/14 03:43:42;;;;;;;;;;;;;;;51.51;11.19;100597.00;5106898;28;19920;-66
2022/09/14 03:46:09;;;;;;;;;;;;;;;51.58;11.57;100596.34;5088562;28;20328;-65
2022/09/14 03:48:36;;;;;;;;;;;;;;;50.95;11.42;100600.06;5109549;28;20010;-63
2022/09/14 03:51:06;;;;;;;;;;;;;;;50.55;11.74;100601.97;5106594;28;19955;-65
2022/09/14 03:53:33;;;;;;;;;;;;;;;51.35;11.10;100612.56;5108197;28;19923;-66
2022/09/14 03:55:59;;;;;;;;;;;;;;;51.56;11.69;100604.84;5108273;28;19924;-64
2022/09/14 03:58:25;;;;;;;;;;;;;;;51.22;11.86;100610.44;5109160;28;19966;-65
2022/09/14 04:00:52;;;;;;;;;;;;;;;50.72;12.16;100614.91;5105568;27;19916;-66
2022/09/14 04:03:18;;;;;;;;;;;;;;;50.52;11.57;100623.34;5108778;28;20297;-67
2022/09/14 04:05:53;;;;;;;;;;;;;;;50.91;11.93;100620.66;5106543;28;20317;-67
2022/09/14 04:08:20;;;;;;;;;;;;;;;49.45;12.70;100627.41;5109195;28;19967;-65
2022/09/14 04:10:46;;;;;;;;;;;;;;;50.41;12.17;100622.16;5109256;28;19916;-66
2022/09/14 04:13:13;;;;;;;;;;;;;;;50.12;12.35;100623.06;5102442;28;20416;-66
2022/09/14 04:15:39;;;;;;;;;;;;;;;49.72;12.52;100622.69;5106005;27;19935;-66
2022/09/14 04:18:05;;;;;;;;;;;;;;;48.98;13.26;100621.72;5110464;27;20087;-67
2022/09/14 04:20:31;;;;;;;;;;;;;;;49.00;13.28;100626.97;5103969;27;19920;-66
2022/09/14 04:22:58;;;;;;;;;;;;;;;49.33;13.13;100625.16;5109856;27;19924;-66
2022/09/14 04:25:24;;;;;;;;;;;;;;;49.14;13.26;100631.59;5107082;28;20094;-67
2022/09/14 04:27:50;;;;;;;;;;;;;;;49.49;13.08;100625.00;5106532;28;19937;-67
2022/09/14 04:30:16;;;;;;;;;;;;;;;49.91;12.46;100620.63;5103530;28;19930;-67
2022/09/14 04:32:43;;;;;;;;;;;;;;;49.01;13.46;100628.53;5109220;28;19919;-67
2022/09/14 04:35:09;;;;;;;;;;;;;;;49.22;12.83;100626.81;5117777;27;19920;-66
2022/09/14 04:37:35;;;;;;;;;;;;;;;49.17;12.96;100630.50;5115795;27;19981;-66
2022/09/14 04:40:02;;;;;;;;;;;;;;;49.93;12.89;100636.66;5108132;28;19916;-67
2022/09/14 04:42:29;;;;;;;;;;;;;;;49.54;13.22;100629.16;5105622;28;20011;-67
2022/09/14 04:44:56;;;;;;;;;;;;;;;50.21;12.17;100628.44;5105455;28;19916;-64
2022/09/14 04:47:22;;;;;;;;;;;;;;;50.47;11.79;100643.13;5103903;28;19953;-67
2022/09/14 04:49:48;;;;;;;;;;;;;;;50.82;12.20;100638.44;5106480;28;20320;-67
2022/09/14 04:52:15;;;;;;;;;;;;;;;51.02;11.62;100646.56;5107690;28;19931;-67
2022/09/14 04:54:41;;;;;;;;;;;;;;;51.15;11.60;100650.81;5102472;28;19939;-67
2022/09/14 04:57:07;;;;;;;;;;;;;;;51.12;11.52;100649.81;5101816;28;19920;-63
2022/09/14 04:59:33;;;;;;;;;;;;;;;51.13;11.61;100639.03;5107059;28;20389;-67
2022/09/14 05:01:59;;;;;;;;;;;;;;;50.94;12.60;100648.50;5102918;27;19927;-66
2022/09/14 05:04:26;;;;;;;;;;;;;;;50.76;11.97;100643.53;5068257;28;19916;-65
2022/09/14 05:06:52;;;;;;;;;;;;;;;49.70;12.80;100645.56;5105769;28;19916;-66
2022/09/14 05:09:18;;;;;;;;;;;;;;;49.00;13.72;100647.19;5106994;28;19916;-67
2022/09/14 05:11:45;;;;;;;;;;;;;;;49.42;13.07;100636.38;5088022;28;20056;-64
2022/09/14 05:14:12;;;;;;;;;;;;;;;48.84;12.98;100648.84;5104138;28;19960;-66
2022/09/14 05:16:39;;;;;;;;;;;;;;;49.28;13.37;100650.63;5105057;28;19920;-65
2022/09/14 05:19:07;;;;;;;;;;;;;;;48.35;13.92;100648.56;5106377;28;20029;-66
2022/09/14 05:21:34;;;;;;;;;;;;;;;48.20;13.94;100653.06;5084569;28;19935;-67
2022/09/14 05:24:02;;;;;;;;;;;;;;;48.70;13.49;100650.78;5103861;28;19919;-67
2022/09/14 05:26:30;;;;;;;;;;;;;;;48.32;13.94;100657.50;5103501;28;19959;-67
2022/09/14 05:28:57;;;;;;;;;;;;;;;48.21;14.26;100655.41;5105820;28;19920;-67
2022/09/14 05:31:25;;;;;;;;;;;;;;;48.09;14.15;100663.28;5101428;27;20419;-67
2022/09/14 05:33:52;;;;;;;;;;;;;;;46.72;15.46;100661.41;5082166;27;19934;-64
2022/09/14 05:36:18;;;;;;;;;;;;;;;47.36;14.80;100662.56;5101353;28;19968;-67
2022/09/14 05:38:44;;;;;;;;;;;;;;;47.49;14.53;100651.31;5086033;28;20422;-68
2022/09/14 05:41:12;;;;;;;;;;;;;;;47.01;15.26;100659.38;5106102;28;19922;-66
2022/09/14 05:43:38;;;;;;;;;;;;;;;46.78;15.42;100656.47;5103344;27;20019;-67
2022/09/14 05:46:06;;;;;;;;;;;;;;;47.70;14.34;100656.81;5107184;28;19916;-67
2022/09/14 05:48:34;;;;;;;;;;;;;;;47.17;14.62;100661.53;5103584;28;19919;-66
2022/09/14 05:51:01;;;;;;;;;;;;;;;46.43;15.10;100656.06;5106458;28;20346;-66
2022/09/14 05:53:28;;;;;;;;;;;;;;;46.84;14.70;100663.00;5108674;28;19916;-66
2022/09/14 05:56:05;;;;;;;;;;;;;;;46.66;14.88;100660.56;5111968;27;19955;-66
2022/09/14 05:58:32;;;;;;;;;;;;;;;46.61;15.38;100664.22;5106092;28;19926;-67
2022/09/14 06:01:05;;;;;;;;;;;;;;;48.27;13.91;100653.31;5099833;28;19916;-66
2022/09/14 06:03:31;;;;;;;;;;;;;;;47.69;13.74;100658.91;5087116;28;20340;-66
2022/09/14 06:05:57;;;;;;;;;;;;;;;47.21;14.34;100667.81;5122869;27;19956;-67
2022/09/14 06:08:23;;;;;;;;;;;;;;;46.42;14.71;100668.88;5126949;27;19973;-67
2022/09/14 06:10:50;;;;;;;;;;;;;;;46.30;15.11;100665.91;5109385;27;20400;-66
2022/09/14 06:13:16;;;;;;;;;;;;;;;47.41;14.04;100663.91;5104459;28;20062;-69
2022/09/14 06:15:42;;;;;;;;;;;;;;;46.50;14.81;100667.06;5103289;28;19920;-68
2022/09/14 06:18:08;;;;;;;;;;;;;;;46.33;15.05;100673.53;5104385;28;19927;-67
2022/09/14 06:20:34;;;;;;;;;;;;;;;47.35;14.19;100671.75;5104084;28;20014;-67
2022/09/14 06:23:01;;;;;;;;;;;;;;;47.55;13.90;100665.72;5106690;28;19993;-69
2022/09/14 06:25:27;;;;;;;;;;;;;;;46.79;14.53;100671.63;5105355;28;19916;-66
2022/09/14 06:27:54;;;;;;;;;;;;;;;46.85;14.60;100676.09;5080830;28;19928;-68
2022/09/14 06:30:20;;;;;;;;;;;;;;;46.69;15.01;100667.41;5099182;28;19920;-67
2022/09/14 06:32:46;;;;;;;;;;;;;;;46.59;15.21;100669.72;5100770;28;20044;-69
2022/09/14 06:35:12;;;;;;;;;;;;;;;46.96;14.79;100673.25;5106313;28;20394;-66
2022/09/14 06:37:39;;;;;;;;;;;;;;;46.51;15.31;100675.19;5100596;28;20008;-68
2022/09/14 06:40:05;;;;;;;;;;;;;;;47.87;14.00;100671.22;5121044;27;19915;-67
2022/09/14 06:42:31;;;;;;;;;;;;;;;47.27;14.39;100671.47;5125153;27;19927;-66
2022/09/14 06:44:57;;;;;;;;;;;;;;;48.09;13.18;100659.63;5092133;28;20382;-68
2022/09/14 06:47:24;;;;;;;;;;;;;;;47.29;14.06;100663.09;5111210;28;19926;-67
2022/09/14 06:49:52;;;;;;;;;;;;;;;47.68;13.81;100666.00;5128805;28;19922;-67
2022/09/14 06:52:18;;;;;;;;;;;;;;;46.48;14.28;100672.53;5109400;28;19920;-67
2022/09/14 06:54:45;;;;;;;;;;;;;;;47.59;13.44;100668.38;5105610;28;19919;-68
2022/09/14 06:57:11;;;;;;;;;;;;;;;47.66;13.21;100667.84;5108723;28;19919;-68
2022/09/14 06:59:38;;;;;;;;;;;;;;;47.28;13.90;100673.06;5101485;28;19935;-68
2022/09/14 07:02:08;;;;;;;;;;;;;;;47.25;13.65;100663.38;5100745;28;20014;-67
2022/09/14 07:04:35;;;;;;;;;;;;;;;45.92;14.91;100669.31;5098979;28;19916;-67
2022/09/14 07:07:02;;;;;;;;;;;;;;;46.35;14.00;100665.16;5095392;28;19955;-67
2022/09/14 07:09:28;;;;;;;;;;;;;;;46.97;13.46;100663.31;5100394;28;19922;-67
2022/09/14 07:11:54;;;;;;;;;;;;;;;47.79;13.10;100659.44;5105794;28;19920;-66
2022/09/14 07:14:20;;;;;;;;;;;;;;;47.32;13.64;100656.28;5105871;28;20401;-67
2022/09/14 07:16:47;;;;;;;;;;;;;;;47.71;12.95;100656.28;5108798;28;19926;-67
2022/09/14 07:19:13;;;;;;;;;;;;;;;47.59;13.40;100657.63;5109668;28;20370;-67
2022/09/14 07:21:40;;;;;;;;;;;;;;;47.99;12.96;100652.59;5105022;28;19928;-68
2022/09/14 07:24:06;;;;;;;;;;;;;;;47.67;13.17;100657.88;5108687;28;19916;-68
2022/09/14 07:26:38;;;;;;;;;;;;;;;48.38;12.56;100659.03;5091988;28;19920;-68
2022/09/14 07:29:09;;;;;;;;;;;;;;;48.45;12.72;100660.56;5105000;28;20453;-67
2022/09/14 07:31:36;;;;;;;;;;;;;;;48.88;12.54;100665.88;5104681;28;19916;-67
2022/09/14 07:34:04;;;;;;;;;;;;;;;48.92;12.12;100658.50;5112618;28;19920;-67
2022/09/14 07:36:31;;;;;;;;;;;;;;;49.11;12.24;100655.75;5106111;28;19927;-65
2022/09/14 07:38:57;;;;;;;;;;;;;;;49.03;12.01;100659.78;5107694;28;20275;-66
2022/09/14 07:41:25;;;;;;;;;;;;;;;48.86;12.38;100656.97;5110534;28;20292;-66
2022/09/14 07:43:52;;;;;;;;;;;;;;;48.91;12.32;100656.16;5108581;28;19919;-66
2022/09/14 07:46:19;;;;;;;;;;;;;;;49.12;12.35;100663.09;5109871;28;19915;-66
2022/09/14 07:48:46;;;;;;;;;;;;;;;49.16;12.29;100657.81;5109122;28;19927;-66
2022/09/14 07:51:13;;;;;;;;;;;;;;;49.20;12.43;100654.63;5108795;28;19920;-66
2022/09/14 07:53:44;;;;;;;;;;;;;;;48.93;13.38;100656.38;5109821;28;20028;-66
2022/09/14 07:56:12;;;;;;;;;;;;;;;48.83;13.29;100658.81;5108767;28;19920;-66
2022/09/14 07:58:38;;;;;;;;;;;;;;;48.95;13.30;100659.56;5110057;28;19912;-67
2022/09/14 08:01:10;;;;;;;;;;;;;;;48.83;13.48;100661.69;5107621;28;19942;-65
2022/09/14 08:03:37;;;;;;;;;;;;;;;48.37;13.88;100662.44;5104977;28;19931;-66
2022/09/14 08:06:05;;;;;;;;;;;;;;;48.61;13.34;100662.63;5111063;28;19915;-66
2022/09/14 08:08:32;;;;;;;;;;;;;;;48.71;14.02;100663.09;5099279;28;19927;-66
2022/09/14 08:11:05;;;;;;;;;;;;;;;48.87;13.46;100665.09;5110492;28;19930;-66
2022/09/14 08:13:32;;;;;;;;;;;;;;;48.95;13.28;100671.09;5106263;28;19923;-66
2022/09/14 08:15:59;;;;;;;;;;;;;;;48.80;12.96;100667.75;5083743;28;19920;-65
2022/09/14 08:18:26;;;;;;;;;;;;;;;48.87;12.98;100672.97;5112345;28;20012;-67
2022/09/14 08:20:52;;;;;;;;;;;;;;;48.79;14.39;100669.84;5104321;27;20285;-65
2022/09/14 08:23:18;;;;;;;;;;;;;;;48.61;13.74;100670.47;5119176;27;20420;-66
2022/09/14 08:25:44;;;;;;;;;;;;;;;48.43;14.49;100669.75;5120465;27;20441;-67
2022/09/14 08:28:10;;;;;;;;;;;;;;;48.31;14.53;100681.88;5104517;27;19926;-66
2022/09/14 08:30:36;;;;;;;;;;;;;;;48.46;14.10;100682.31;5129303;27;19916;-66
2022/09/14 08:33:02;;;;;;;;;;;;;;;48.51;14.33;100677.88;5107976;27;19915;-66
2022/09/14 08:35:28;;;;;;;;;;;;;;;48.44;14.33;100673.41;5116033;27;19920;-66
2022/09/14 08:37:54;;;;;;;;;;;;;;;48.47;14.54;100672.34;5122426;27;20471;-66
2022/09/14 08:40:20;;;;;;;;;;;;;;;48.35;14.38;100670.84;5102357;27;19916;-65
2022/09/14 08:42:47;;;;;;;;;;;;;;;48.29;14.30;100682.38;5127970;27;19920;-66
2022/09/14 08:45:15;;;;;;;;;;;;;;;48.31;13.88;100674.03;5110995;27;20430;-66
2022/09/14 08:47:42;;;;;;;;;;;;;;;48.33;14.19;100673.47;5112279;27;19923;-65
2022/09/14 08:50:08;;;;;;;;;;;;;;;48.26;14.43;100676.91;5126251;27;19923;-65
2022/09/14 08:52:39;;;;;;;;;;;;;;;48.39;14.06;100671.34;5101885;27;19920;-65
2022/09/14 08:55:21;;;;;;;;;;;;;;;48.45;14.44;100674.97;5122278;27;19920;-66
2022/09/14 08:57:54;;;;;;;;;;;;;;;48.27;14.39;100670.59;5120235;27;19978;-65
2022/09/14 09:00:31;;;;;;;;;;;;;;;48.21;14.31;100671.91;5101600;27;19931;-66
2022/09/14 09:02:57;;;;;;;;;;;;;;;48.23;14.49;100669.31;5123245;27;20281;-64
2022/09/14 09:05:29;;;;;;;;;;;;;;;48.13;14.24;100678.25;5105850;28;19923;-65
2022/09/14 09:08:15;;;;;;;;;;;;;;;48.07;14.43;100674.56;5122340;27;20501;-65
2022/09/14 09:10:42;;;;;;;;;;;;;;;48.19;14.87;100680.31;5101520;27;19924;-66
2022/09/14 09:13:12;;;;;;;;;;;;;;;48.22;14.90;100680.03;5121045;27;20294;-64
2022/09/14 09:15:47;;;;;;;;;;;;;;;48.17;15.08;100677.19;5117311;27;19931;-65
2022/09/14 09:18:19;;;;;;;;;;;;;;;48.14;14.54;100676.94;5102771;27;19920;-65
2022/09/14 09:20:46;;;;;;;;;;;;;;;48.07;15.23;100677.47;5098520;28;19985;-65
2022/09/14 09:23:16;;;;;;;;;;;;;;;48.01;15.14;100681.69;5105567;28;19916;-66
2022/09/14 09:25:54;;;;;;;;;;;;;;;48.09;15.24;100680.59;5106090;28;19920;-66
2022/09/14 09:28:21;;;;;;;;;;;;;;;48.23;15.36;100680.84;5097418;28;19967;-67
2022/09/14 09:30:47;;;;;;;;;;;;;;;48.07;14.82;100679.56;5110062;28;19920;-67
2022/09/14 09:33:19;;;;;;;;;;;;;;;48.08;14.74;100687.69;5107495;28;19919;-66
2022/09/14 09:36:20;;;;;;;;;;;;;;;48.20;14.88;100690.53;5089810;28;19965;-67
2022/09/14 09:38:47;;;;;;;;;;;;;;;48.20;14.88;100687.66;5112937;27;19970;-67
2022/09/14 09:41:24;;;;;;;;;;;;;;;48.07;14.61;100686.09;5109640;27;20632;-66
2022/09/14 09:44:10;;;;;;;;;;;;;;;47.99;15.28;100690.84;5089650;28;19920;-66
2022/09/14 09:46:38;;;;;;;;;;;;;;;48.08;15.25;100670.38;5127496;27;20340;-67
2022/09/14 09:49:15;;;;;;;;;;;;;;;48.07;14.99;100680.34;5106622;27;20010;-66
2022/09/14 09:51:41;;;;;;;;;;;;;;;48.21;14.71;100671.91;5110778;27;19920;-67
2022/09/14 09:54:27;;;;;;;;;;;;;;;48.05;15.22;100677.22;5080470;28;20294;-66
2022/09/14 09:56:55;;;;;;;;;;;;;;;48.09;15.04;100676.94;5098685;28;20304;-67
2022/09/14 09:59:22;;;;;;;;;;;;;;;48.07;14.83;100680.34;5104582;28;20292;-66
2022/09/14 10:01:48;;;;;;;;;;;;;;;47.98;15.56;100677.75;5106016;28;19926;-66
2022/09/14 10:04:19;;;;;;;;;;;;;;;47.92;15.32;100676.19;5113458;28;19984;-66
2022/09/14 10:06:47;;;;;;;;;;;;;;;47.95;15.52;100684.59;5097373;28;19973;-66
2022/09/14 10:09:34;;;;;;;;;;;;;;;47.98;15.49;100686.41;5105642;28;20291;-66
2022/09/14 10:12:02;;;;;;;;;;;;;;;48.17;14.86;100677.19;5107792;28;20397;-66
2022/09/14 10:14:30;;;;;;;;;;;;;;;48.20;14.90;100679.78;5095315;28;19973;-67
2022/09/14 10:17:16;;;;;;;;;;;;;;;48.26;15.17;100685.56;5107658;28;19967;-66
2022/09/14 10:19:53;;;;;;;;;;;;;;;48.22;14.64;100685.03;5105259;28;20305;-67
2022/09/14 10:22:29;;;;;;;;;;;;;;;48.03;15.52;100682.72;5095846;28;20135;-67
2022/09/14 10:25:14;;;;;;;;;;;;;;;47.85;15.67;100681.16;5108085;28;19967;-66
2022/09/14 10:27:47;;;;;;;;;;;;;;;47.74;15.67;100683.25;5116472;27;20396;-66
2022/09/14 10:30:18;;;;;;;;;;;;;;;47.82;15.36;100682.22;5101026;27;20362;-66
2022/09/14 10:33:07;;;;;;;;;;;;;;;47.93;15.56;100686.41;5103327;28;19920;-66
2022/09/14 10:35:43;;;;;;;;;;;;;;;47.94;15.45;100685.91;5091400;28;19924;-65
2022/09/14 10:38:27;;;;;;;;;;;;;;;48.04;15.48;100681.41;5124691;27;19924;-66
2022/09/14 10:41:12;;;;;;;;;;;;;;;47.74;15.54;100691.91;5098045;28;20342;-67
2022/09/14 10:43:55;;;;;;;;;;;;;;;47.70;15.60;100682.75;5100747;28;20796;-66
2022/09/14 10:46:28;;;;;;;;;;;;;;;47.79;15.49;100688.25;5126773;28;19924;-66
2022/09/14 10:48:54;;;;;;;;;;;;;;;47.74;15.69;100686.13;5103453;28;19919;-66
2022/09/14 10:51:28;;;;;;;;;;;;;;;47.72;15.56;100683.00;5097482;28;19927;-66
2022/09/14 10:53:57;;;;;;;;;;;;;;;47.75;15.70;100676.97;5102043;28;19965;-66
2022/09/14 10:56:33;;;;;;;;;;;;;;;47.89;15.31;100691.66;5098417;28;20008;-65
2022/09/14 10:58:59;;;;;;;;;;;;;;;47.94;15.42;100691.66;5121844;28;19932;-67
2022/09/14 11:01:28;;;;;;;;;;;;;;;47.82;15.32;100698.72;5112002;28;19987;-67
2022/09/14 11:04:13;;;;;;;;;;;;;;;47.66;15.60;100696.63;5126670;28;20010;-67
2022/09/14 11:06:57;;;;;;;;;;;;;;;47.79;15.07;100694.00;5099832;28;19920;-67
2022/09/14 11:09:24;;;;;;;;;;;;;;;47.72;15.63;100698.19;5114466;28;20293;-66
2022/09/14 11:11:56;;;;;;;;;;;;;;;47.65;15.36;100695.84;5118909;28;19919;-66
2022/09/14 11:14:40;;;;;;;;;;;;;;;47.59;15.50;100705.81;5099624;28;19927;-66
2022/09/14 11:17:10;;;;;;;;;;;;;;;47.69;15.14;100698.47;5119200;28;20377;-67
2022/09/14 11:19:42;;;;;;;;;;;;;;;47.54;15.27;100702.41;5114875;28;19923;-67
2022/09/14 11:22:21;;;;;;;;;;;;;;;47.59;15.34;100702.94;5101865;28;19916;-66
2022/09/14 11:24:48;;;;;;;;;;;;;;;47.52;15.61;100713.66;5097014;28;19920;-66
2022/09/14 11:27:14;;;;;;;;;;;;;;;47.45;15.38;100702.63;5104731;28;19920;-66
2022/09/14 11:29:47;;;;;;;;;;;;;;;47.62;15.14;100704.75;5104140;28;19931;-66
2022/09/14 11:32:16;;;;;;;;;;;;;;;47.59;15.62;100709.47;5102494;28;19920;-66
2022/09/14 11:34:47;;;;;;;;;;;;;;;47.68;15.31;100717.06;5077872;28;19935;-66
2022/09/14 11:37:16;;;;;;;;;;;;;;;47.79;15.21;100717.06;5104654;28;19970;-66
2022/09/14 11:39:48;;;;;;;;;;;;;;;47.77;15.42;100711.81;5104404;28;19915;-66
2022/09/14 11:42:21;;;;;;;;;;;;;;;47.58;15.21;100719.41;5095983;28;19920;-66
2022/09/14 11:44:49;;;;;;;;;;;;;;;47.54;15.16;100716.78;5096614;28;20419;-67
2022/09/14 11:47:17;;;;;;;;;;;;;;;47.72;15.33;100718.34;5104356;28;20641;-66
2022/09/14 11:49:43;;;;;;;;;;;;;;;47.78;15.06;100719.16;5104249;28;20396;-67
2022/09/14 11:52:20;;;;;;;;;;;;;;;47.79;14.89;100723.63;5096858;28;19916;-66
2022/09/14 11:54:47;;;;;;;;;;;;;;;47.88;15.10;100721.78;5097204;28;20292;-66
2022/09/14 11:57:16;;;;;;;;;;;;;;;47.84;15.21;100717.06;5108094;28;19943;-67
2022/09/14 11:59:43;;;;;;;;;;;;;;;47.87;15.35;100729.66;5107851;28;20330;-66
2022/09/14 12:02:25;;;;;;;;;;;;;;;47.92;15.36;100728.84;5105721;28;20007;-67
2022/09/14 12:05:06;;;;;;;;;;;;;;;47.98;15.40;100726.75;5100491;28;19915;-66
2022/09/14 12:07:41;;;;;;;;;;;;;;;47.81;15.11;100725.97;5105168;28;19924;-66
2022/09/14 12:10:16;;;;;;;;;;;;;;;47.76;15.37;100729.63;5126453;27;19919;-68
2022/09/14 12:12:48;;;;;;;;;;;;;;;47.70;15.09;100726.75;5099309;28;19919;-66
2022/09/14 12:15:24;;;;;;;;;;;;;;;47.79;15.13;100731.47;5107480;28;19927;-65
2022/09/14 12:17:52;;;;;;;;;;;;;;;47.87;15.27;100734.63;5108654;28;19955;-66
2022/09/14 12:20:21;;;;;;;;;;;;;;;47.81;14.70;100740.38;5098663;28;19920;-68
2022/09/14 12:22:48;;;;;;;;;;;;;;;47.74;14.77;100738.00;5111331;28;19927;-66
2022/09/14 12:25:22;;;;;;;;;;;;;;;47.79;15.26;100743.00;5103318;28;20011;-66
2022/09/14 12:27:49;;;;;;;;;;;;;;;47.95;14.62;100748.00;5102740;28;20030;-67
2022/09/14 12:30:34;;;;;;;;;;;;;;;47.88;15.19;100747.72;5108324;27;19916;-67
2022/09/14 12:33:01;;;;;;;;;;;;;;;47.95;14.83;100752.97;5107611;28;20097;-66
2022/09/14 12:35:33;;;;;;;;;;;;;;;47.83;15.55;100755.03;5105401;28;20007;-68
2022/09/14 12:38:19;;;;;;;;;;;;;;;47.78;15.60;100762.38;5123778;27;19942;-68
2022/09/14 12:40:46;;;;;;;;;;;;;;;47.90;15.32;100766.06;5067644;28;20413;-68
2022/09/14 12:43:30;;;;;;;;;;;;;;;47.98;14.88;100763.44;5108207;28;19920;-67
2022/09/14 12:46:01;;;;;;;;;;;;;;;47.99;14.67;100768.69;5105839;28;19920;-67
2022/09/14 12:48:53;;;;;;;;;;;;;;;47.80;14.99;100776.25;5102367;28;20416;-67
2022/09/14 12:51:22;;;;;;;;;;;;;;;47.74;15.49;100770.47;5106279;28;19935;-66